Tiempo atmosférico en la estación meteorológica de Valdemorillo, Madrid (884 m.)



Fecha
DESCASC
Temp. máxima en grados centígrados (hora)
DESCASC
Temp. mínima en grados centígrados (hora)
DESCASC
Temp. media en grados centígrados
DESCASC
Racha de viento máxima en m/sg (hora)
DESCASC
Velocidad máxima media en intervalos de 10 minutos(hora)
DESCASC
Precipitaciones diarias en mm
DESCASC
Precipitaciones de 00:00 a 06:00 en mm
DESCASC
Precipitaciones de 06:00 a 12:00 en mm
DESCASC
Precipitaciones de 12:00 a 18:00 en mm
DESCASC
Precipitaciones de 18:00 a 24:00 en mm
DESCASC
06-07-2020 35.3 (18:30) 21 (07:10) 28.1 7.5 (18:40) 4.44 (22:50) 0 0 0 0 0
05-07-2020 35.9 (19:50) 18.8 (07:00) 27.4 8.89 (03:20) 5 (03:20) 0 0 0 0 0
04-07-2020 33.8 (18:50) 16.6 (07:00) 25.2 7.22 (22:30) 4.44 (22:30) 0 0 0 0 0
03-07-2020 31.6 (18:50) 15.5 (07:30) 23.6 9.72 (01:10) 5 (00:40) 0 0 0 0 0
02-07-2020 31.4 (16:20) 18.7 (00:00) 25.1 12.22 (15:40) 5.56 (13:20) 0 0 0 0 0
01-07-2020 33.8 (17:20) 20.4 (00:00) 27.1 10.28 (15:10) 5.83 (14:30) 0 0 0 0 0
30-06-2020 35.8 (16:20) 20.8 (00:00) 28.3 11.11 (17:20) 5.83 (17:00) 0 0 0 0 0
29-06-2020 35.6 (18:20) 19.6 (00:00) 27.6 9.17 (15:10) 4.72 (17:50) 0 0 0 0 0
28-06-2020 33.6 (18:20) 17 (00:00) 25.3 8.06 (15:00) 4.17 (15:10) 0 0 0 0 0
27-06-2020 31.3 (16:10) 17.7 (00:00) 24.5 9.17 (14:50) 4.72 (14:50) 0 0 0 0 0
26-06-2020 29.8 (17:30) 18.4 (00:00) 24.1 11.94 (15:10) 6.11 (17:50) 0 0 0 0 0
25-06-2020 33.1 (17:30) 20.7 (00:00) 26.9 11.67 (17:40) 5.83 (17:50) 0 0 0 0 0
24-06-2020 30.9 (18:20) 20.9 (00:00) 25.9 10.83 (15:20) 5.83 (09:00) 0.2 0 0.2 0 0
23-06-2020 35.7 (17:30) 19.6 (00:00) 27.7 7.78 (22:20) 4.72 (22:20) 0 0 0 0 0
22-06-2020 34.4 (18:00) 17.3 (00:00) 25.9 7.78 (02:30) 4.17 (01:50) 0 0 0 0 0
21-06-2020 32.2 (16:30) 16.7 (00:00) 24.5 8.89 (01:10) 5.28 (01:20) 0 0 0 0 0
20-06-2020 31.2 (17:40) 16.2 (00:00) 23.7 9.17 (16:30) 5.83 (16:30) 0 0 0 0 0
19-06-2020 29.5 (18:50) 14.1 (00:00) 21.8 9.44 (16:10) 5.28 (16:50) 0 0 0 0 0
18-06-2020 27.2 (16:50) 12.2 (00:00) 19.7 8.89 (15:30) 4.72 (16:30) 0 0 0 0 0
17-06-2020 24 (18:40) 12.6 (00:00) 18.3 10 (01:50) 5.83 (01:50) 0 0 0 0 0
16-06-2020 23.5 (16:50) 14.5 (00:00) 19 13.06 (18:30) 6.39 (18:30) 0 0 0 0 0
15-06-2020 25.8 (17:00) 12.9 (00:00) 19.3 9.72 (13:20) 5.28 (16:00) 0 0 0 0 0
14-06-2020 24.5 (16:50) 10.7 (00:00) 17.6 8.89 (12:40) 4.72 (22:10) 0 0 0 0 0
13-06-2020 21.8 (17:20) 8.3 (00:00) 15 8.33 (17:10) 4.44 (20:20) 0 0 0 0 0
12-06-2020 18.1 (18:30) 6.6 (00:00) 12.4 12.5 (19:00) 7.22 (18:50) 0.2 0 0 0 0.2
11-06-2020 21.6 (15:40) 11.8 (00:00) 16.7 15.28 (20:20) 8.33 (20:00) 0.6 0 0 0 0.6
10-06-2020 24.3 (17:50) 9.7 (00:00) 17 8.06 (15:30) 4.44 (15:30) 0 0 0 0 0

Gráficas

Temp. máximas Temp. mínimas Temp. medias Precipitaciones Rachas de viento máximas Velocidades máximas media en intervalos de 10 minutos

Datos horarios

Fecha y hora oficial Temperatura (ºC) Velocidad del viento (km/h) Dirección del viento Racha (km/h) Dirección de racha Precipitación (mm) Presión (hPa) Tendencia (hPa) Humedad (%)
2020-07-09 23:00:00 21.3 14 Nordeste 28 Nordeste 0 -- -- 50
2020-07-09 22:00:00 21.7 14 Nordeste 44 Este 0 -- -- 47
2020-07-09 21:00:00 24.7 18 Este 39 Este 0 -- -- 41
2020-07-09 20:00:00 26.5 12 Este 32 Nordeste 0 -- -- 38
2020-07-09 19:00:00 24.2 19 Nordeste 40 Nordeste 1.4 -- -- 49
2020-07-09 18:00:00 27 22 Este 47 Nordeste 0 -- -- 41
2020-07-09 17:00:00 33 16 Sur 29 Sur 0 -- -- 21
2020-07-09 16:00:00 31.6 10 Sur 28 Sur 0 -- -- 23
2020-07-09 15:00:00 30.8 6 Sudeste 24 Este 0 -- -- 27
2020-07-09 14:00:00 30.3 5 Oeste 22 Sudeste 0 -- -- 31
2020-07-09 13:00:00 28.9 7 Este 23 Este 0 -- -- 36
2020-07-09 12:00:00 27.3 9 Este 22 Este 0 -- -- 41
2020-07-09 11:00:00 25.7 7 Este 21 Sudeste 0 -- -- 45
2020-07-09 10:00:00 24.5 10 Nordeste 24 Este 0 -- -- 49
2020-07-09 09:00:00 23.3 12 Este 25 Nordeste 0 -- -- 51
2020-07-09 08:00:00 21.3 10 Nordeste 19 Nordeste 0 -- -- 53
2020-07-09 07:00:00 20.4 11 Nordeste 22 Nordeste 0 -- -- 52
2020-07-09 06:00:00 20.6 10 Nordeste 18 Nordeste 0 -- -- 55
2020-07-09 05:00:00 20.8 9 Nordeste 17 Nordeste 0 -- -- 55
2020-07-09 04:00:00 21.8 6 Este 17 Este 0 -- -- 44
2020-07-09 03:00:00 23 5 Sudeste 13 Este 0 -- -- 41
2020-07-09 02:00:00 24.1 4 Nordeste 15 Este 0 -- -- 40
2020-07-09 01:00:00 25.1 7 Este 18 Nordeste 0 -- -- 37
2020-07-09 00:00:00 26.1 9 Nordeste 23 Nordeste 0 -- -- 36
2020-07-08 23:00:00 27.3 10 Nordeste 20 Este 0 -- -- 34
2020-07-08 22:00:00 28.1 6 Este 23 Este 0 -- -- 34
2020-07-08 21:00:00 29 14 Sudeste 42 Sudeste 0 -- -- 33
2020-07-08 20:00:00 30.6 18 Sudeste 44 Sur 0 -- -- 30
2020-07-08 19:00:00 30.8 19 Sudeste 38 Sudeste 0 -- -- 32
2020-07-08 18:00:00 31.3 12 Sur 37 Sudeste 0 -- -- 30
2020-07-08 17:00:00 35.6 22 Sur 40 Sudeste 0 -- -- 21
2020-07-08 16:00:00 34.9 15 Sudeste 33 Sudeste 0 -- -- 23
2020-07-08 15:00:00 33.4 17 Sudeste 29 Sudeste 0 -- -- 25
2020-07-08 14:00:00 31.5 15 Sudeste 28 Este 0 -- -- 25
2020-07-08 13:00:00 30.6 12 Este 30 Este 0 -- -- 27
2020-07-08 12:00:00 30.6 14 Este 40 Este 0 -- -- 28
2020-07-08 11:00:00 28.9 18 Nordeste 31 Nordeste 0 -- -- 29
2020-07-08 10:00:00 27.1 16 Nordeste 26 Nordeste 0 -- -- 34
2020-07-08 09:00:00 25.5 17 Nordeste 56 Nordeste 0 -- -- 34
2020-07-08 08:00:00 24 10 Sudoeste 24 Nordeste 0 -- -- 38
2020-07-08 07:00:00 23.5 14 Nordeste 24 Nordeste 0 -- -- 41
2020-07-08 06:00:00 24.3 11 Sudeste 26 Sudeste 0 -- -- 35
2020-07-08 05:00:00 25.5 7 Este 17 Este 0 -- -- 31
2020-07-08 04:00:00 25.4 7 Este 12 Nordeste 0 -- -- 29
2020-07-08 03:00:00 26.3 4 Nordeste 10 Nordeste 0 -- -- 27
2020-07-08 02:00:00 27.3 6 Nordeste 11 Nordeste 0 -- -- 24
2020-07-08 01:00:00 26.4 3 Nordeste 7 Este 0 -- -- 26
2020-07-08 00:00:00 28.8 2 Oeste 14 Noroeste 0 -- -- 21
2020-07-07 23:00:00 30.3 9 Noroeste 19 Noroeste 0 -- -- 20
2020-07-07 22:00:00 31.7 11 Noroeste 22 Sudoeste 0 -- -- 19
2020-07-07 21:00:00 34 12 Oeste 30 Oeste 0 -- -- 20
2020-07-07 20:00:00 35.5 16 Sudoeste 31 Oeste 0 -- -- 19
2020-07-07 19:00:00 36.6 14 Oeste 31 Oeste 0 -- -- 20
2020-07-07 18:00:00 37.2 11 Sudoeste 26 Sudoeste 0 -- -- 21
2020-07-07 17:00:00 36.6 16 Sudoeste 34 Sur 0 -- -- 22
2020-07-07 16:00:00 36.2 13 Oeste 35 Sudoeste 0 -- -- 22
2020-07-07 15:00:00 34.9 12 Sudoeste 31 Sudoeste 0 -- -- 24
2020-07-07 14:00:00 33.7 9 Sudoeste 22 Sudoeste 0 -- -- 27
2020-07-07 13:00:00 32 7 Sudeste 14 Este 0 -- -- 28
2020-07-07 12:00:00 29.8 8 Sudeste 16 Sudeste 0 -- -- 31
2020-07-07 11:00:00 28.4 7 Este 18 Este 0 -- -- 30
2020-07-07 10:00:00 27 8 Este 18 Este 0 -- -- 31
2020-07-07 09:00:00 23.9 8 Nordeste 16 Nordeste 0 -- -- 46
2020-07-07 08:00:00 21.1 9 Nordeste 19 Nordeste 0 -- -- 57
2020-07-07 07:00:00 20.8 11 Nordeste 22 Nordeste 0 -- -- 58
2020-07-07 06:00:00 21.9 12 Nordeste 22 Nordeste 0 -- -- 52
2020-07-07 05:00:00 22.2 0 Calma 14 Este 0 -- -- 45
2020-07-07 04:00:00 23.1 2 Este 21 Este 0 -- -- 45
2020-07-07 03:00:00 24 11 Este 24 Este 0 -- -- 45
2020-07-07 02:00:00 24.7 10 Este 24 Este 0 -- -- 44
2020-07-07 01:00:00 26.1 10 Este 21 Nordeste 0 -- -- 41
2020-07-07 00:00:00 27.5 8 Este 23 Nordeste 0 -- -- 39
2020-07-06 23:00:00 28.3 13 Nordeste 24 Nordeste 0 -- -- 38
2020-07-06 22:00:00 29.6 12 Norte 27 Norte 0 -- -- 37
2020-07-06 21:00:00 32.2 12 Norte 24 Nordeste 0 -- -- 33
2020-07-06 20:00:00 34.1 11 Norte 26 Norte 0 -- -- 27
2020-07-06 19:00:00 34.6 11 Norte 27 Norte 0 -- -- 26
2020-07-06 18:00:00 34.9 13 Norte 26 Norte 0 -- -- 25
2020-07-06 17:00:00 35.1 15 Nordeste 26 Nordeste 0 -- -- 25
2020-07-06 16:00:00 33.2 8 Nordeste 24 Noroeste 0 -- -- 27
2020-07-06 15:00:00 34.5 7 Nordeste 18 Sur 0 -- -- 26
2020-07-06 14:00:00 33.4 8 Oeste 21 Sur 0 -- -- 28
2020-07-06 13:00:00 32.4 8 Sudeste 20 Este 0 -- -- 30
2020-07-06 12:00:00 30.9 6 Sudeste 15 Sudeste 0 -- -- 33
2020-07-06 11:00:00 28.6 7 Este 15 Nordeste 0 -- -- 37
2020-07-06 10:00:00 27.1 8 Este 21 Este 0 -- -- 40
2020-07-06 09:00:00 25.3 12 Este 24 Nordeste 0 -- -- 43
2020-07-06 08:00:00 21.8 7 Nordeste 11 Nordeste 0 -- -- 51
2020-07-06 07:00:00 21.2 6 Nordeste 13 Nordeste 0 -- -- 48
2020-07-06 06:00:00 22.2 3 Nordeste 10 Nordeste 0 -- -- 41
2020-07-06 05:00:00 23 2 Nordeste 15 Nordeste 0 -- -- 42
2020-07-06 04:00:00 24.1 2 Nordeste 19 Nordeste 0 -- -- 36
2020-07-06 03:00:00 26 12 Nordeste 20 Este 0 -- -- 33
2020-07-06 02:00:00 26.3 10 Nordeste 20 Nordeste 0 -- -- 31
2020-07-06 01:00:00 27.5 14 Norte 23 Norte 0 -- -- 28
2020-07-06 00:00:00 27.5 14 Nordeste 21 Norte 0 -- -- 27
2020-07-05 23:00:00 28.2 12 Norte 18 Norte 0 -- -- 26
2020-07-05 22:00:00 30.4 11 Norte 22 Nordeste 0 -- -- 23
2020-07-05 21:00:00 32.8 12 Norte 20 Norte 0 -- -- 20
2020-07-05 20:00:00 35.5 4 Nordeste 17 Sur 0 -- -- 19
2020-07-05 19:00:00 35.5 8 Sur 24 Sur 0 -- -- 19
2020-07-05 18:00:00 35.4 11 Sudoeste 27 Sudoeste 0 -- -- 19
2020-07-05 17:00:00 35.5 10 Sur 27 Sudoeste 0 -- -- 19
2020-07-05 16:00:00 34.7 13 Oeste 27 Sudoeste 0 -- -- 20
2020-07-05 15:00:00 33.8 6 Sur 24 Sudoeste 0 -- -- 23
2020-07-05 14:00:00 32.5 8 Sur 19 Sudoeste 0 -- -- 24
2020-07-05 13:00:00 31.4 7 Sur 16 Sudeste 0 -- -- 25
2020-07-05 12:00:00 28.6 5 Norte 14 Nordeste 0 -- -- 32
2020-07-05 11:00:00 26.5 6 Nordeste 15 Este 0 -- -- 35
2020-07-05 10:00:00 25.5 4 Este 14 Este 0 -- -- 32
2020-07-05 09:00:00 22.8 6 Nordeste 11 Nordeste 0 -- -- 35
2020-07-05 08:00:00 20.5 5 Nordeste 15 Nordeste 0 -- -- 36
2020-07-05 07:00:00 18.8 9 Nordeste 23 Norte 0 -- -- 44
2020-07-05 06:00:00 19.3 11 Nordeste 17 Nordeste 0 -- -- 37
2020-07-05 05:00:00 20 3 Nordeste 28 Nordeste 0 -- -- 43
2020-07-05 04:00:00 23 17 Nordeste 32 Nordeste 0 -- -- 29
2020-07-05 03:00:00 23.7 16 Nordeste 30 Este 0 -- -- 27
2020-07-05 02:00:00 22.5 13 Nordeste 23 Nordeste 0 -- -- 28
2020-07-05 01:00:00 24 11 Nordeste 18 Nordeste 0 -- -- 29
2020-07-05 00:00:00 25.3 9 Nordeste 24 Nordeste 0 -- -- 23
2020-07-04 23:00:00 26.5 15 Nordeste 26 Norte 0 -- -- 22
2020-07-04 22:00:00 27.9 13 Nordeste 22 Norte 0 -- -- 23
2020-07-04 21:00:00 30.7 10 Norte 20 Norte 0 -- -- 20
2020-07-04 20:00:00 32.4 10 Norte 20 Norte 0 -- -- 17
2020-07-04 19:00:00 33.4 9 Norte 23 Norte 0 -- -- 19
2020-07-04 18:00:00 33 8 Nordeste 19 Norte 0 -- -- 19
2020-07-04 17:00:00 32.9 7 Este 15 Nordeste 0 -- -- 21
2020-07-04 16:00:00 32.4 7 Oeste 21 Sudoeste 0 -- -- 21
2020-07-04 15:00:00 31.3 9 Sudoeste 19 Sudoeste 0 -- -- 23
2020-07-04 14:00:00 29.9 9 Sudoeste 18 Sudoeste 0 -- -- 24
2020-07-04 13:00:00 27.7 6 Sur 14 Sur 0 -- -- 27
2020-07-04 12:00:00 25.6 8 Sudoeste 13 Sudoeste 0 -- -- 30
2020-07-04 11:00:00 23.8 7 Sur 16 Sur 0 -- -- 34
2020-07-04 10:00:00 22.6 10 Este 18 Este 0 -- -- 37
2020-07-04 09:00:00 19.9 8 Nordeste 15 Este 0 -- -- 44
2020-07-04 08:00:00 18 7 Nordeste 14 Este 0 -- -- 44
2020-07-04 07:00:00 16.6 6 Este 12 Este 0 -- -- 42
2020-07-04 06:00:00 17.4 7 Este 12 Este 0 -- -- 40
2020-07-04 05:00:00 18.3 2 Este 12 Este 0 -- -- 38
2020-07-04 04:00:00 18.8 0 Calma 12 Este 0 -- -- 38
2020-07-04 03:00:00 19.8 4 Este 11 Este 0 -- -- 36
2020-07-04 02:00:00 19.9 5 Este 13 Norte 0 -- -- 37
2020-07-04 01:00:00 22 10 Norte 18 Norte 0 -- -- 32
2020-07-04 00:00:00 22.9 10 Norte 18 Norte 0 -- -- 31
2020-07-03 23:00:00 24.2 8 Norte 21 Nordeste 0 -- -- 30
2020-07-03 22:00:00 25.6 12 Norte 20 Norte 0 -- -- 26
2020-07-03 21:00:00 28 14 Norte 29 Norte 0 -- -- 21
2020-07-03 20:00:00 29.8 14 Norte 27 Nordeste 0 -- -- 21
2020-07-03 19:00:00 31.4 10 Sudoeste 23 Sudoeste 0 -- -- 23
2020-07-03 18:00:00 30.9 5 Norte 23 Sudoeste 0 -- -- 24
2020-07-03 17:00:00 30.1 9 Este 18 Sur 0 -- -- 25
2020-07-03 16:00:00 29.7 13 Sudoeste 24 Sudoeste 0 -- -- 26
2020-07-03 15:00:00 28.7 9 Sur 21 Sudoeste 0 -- -- 29
2020-07-03 14:00:00 27.1 6 Oeste 16 Noroeste 0 -- -- 32
2020-07-03 13:00:00 25.2 6 Sudoeste 19 Sudeste 0 -- -- 36
2020-07-03 12:00:00 23.1 7 Este 21 Este 0 -- -- 41
2020-07-03 11:00:00 21.3 8 Este 21 Este 0 -- -- 47
2020-07-03 10:00:00 20.3 9 Este 28 Nordeste 0 -- -- 50
2020-07-03 09:00:00 17.9 14 Nordeste 30 Nordeste 0 -- -- 56
2020-07-03 08:00:00 16.3 11 Nordeste 20 Este 0 -- -- 64
2020-07-03 07:00:00 15.6 8 Nordeste 17 Este 0 -- -- 68
2020-07-03 06:00:00 16.4 9 Este 19 Este 0 -- -- 67
2020-07-03 05:00:00 17.3 3 Nordeste 19 Nordeste 0 -- -- 65
2020-07-03 04:00:00 18.7 3 Este 23 Este 0 -- -- 58
2020-07-03 03:00:00 19.4 0 Calma 15 Nordeste 0 -- -- 41
2020-07-03 02:00:00 20.3 9 Norte 35 Norte 0 -- -- 36
2020-07-03 01:00:00 21.4 18 Norte 32 Nordeste 0 -- -- 36
2020-07-03 00:00:00 22.3 13 Norte 26 Nordeste 0 -- -- 35
2020-07-02 23:00:00 23.6 11 Norte 34 Norte 0 -- -- 32
2020-07-02 22:00:00 25.2 12 Noroeste 28 Norte 0 -- -- 32
2020-07-02 21:00:00 26.9 14 Norte 30 Noroeste 0 -- -- 32
2020-07-02 20:00:00 27.2 10 Norte 28 Noroeste 0 -- -- 35
2020-07-02 19:00:00 29.7 15 Norte 31 Noroeste 0 -- -- 31
2020-07-02 18:00:00 30.7 15 Oeste 27 Oeste 0 -- -- 27
2020-07-02 17:00:00 29.6 17 Oeste 37 Sudoeste 0 -- -- 29
2020-07-02 16:00:00 30.9 17 Sudoeste 44 Sudoeste 0 -- -- 27
2020-07-02 15:00:00 30.2 14 Sudoeste 36 Sudoeste 0 -- -- 25
2020-07-02 14:00:00 29.4 18 Oeste 35 Oeste 0 -- -- 24
2020-07-02 13:00:00 28.6 20 Oeste 36 Oeste 0 -- -- 29
2020-07-02 12:00:00 27.7 15 Sudoeste 28 Sudoeste 0 -- -- 33
2020-07-02 11:00:00 25.9 13 Sudoeste 22 Sudoeste 0 -- -- 38
2020-07-02 10:00:00 23.3 5 Sudoeste 12 Sudoeste 0 -- -- 47
2020-07-02 09:00:00 22 6 Sur 11 Sur 0 -- -- 49
2020-07-02 08:00:00 19.8 6 Este 13 Nordeste 0 -- -- 60
2020-07-02 07:00:00 18.8 4 Noroeste 9 Sudoeste 0 -- -- 55
2020-07-02 06:00:00 19.4 7 Sur 10 Sudoeste 0 -- -- 55
2020-07-02 05:00:00 19.7 0 Calma 13 Norte 0 -- -- 53
2020-07-02 04:00:00 21.6 8 Norte 18 Nordeste 0 -- -- 49
2020-07-02 03:00:00 22.7 8 Norte 18 Norte 0 -- -- 45
2020-07-02 02:00:00 23.6 12 Norte 26 Norte 0 -- -- 40
2020-07-02 01:00:00 24.6 11 Norte 22 Norte 0 -- -- 37
2020-07-02 00:00:00 26.1 11 Norte 22 Norte 0 -- -- 31
2020-07-01 23:00:00 27.3 8 Noroeste 20 Noroeste 0 -- -- 33
2020-07-01 22:00:00 28.4 9 Oeste 26 Oeste 0 -- -- 32
2020-07-01 21:00:00 29.8 9 Oeste 24 Noroeste 0 -- -- 27
2020-07-01 20:00:00 32.8 12 Oeste 23 Oeste 0 -- -- 24
2020-07-01 19:00:00 31.5 10 Oeste 23 Norte 0 -- -- 27
2020-07-01 18:00:00 32.2 12 Noroeste 29 Noroeste 0 -- -- 25
2020-07-01 17:00:00 32.5 12 Noroeste 34 Noroeste 0 -- -- 25
2020-07-01 16:00:00 31.1 8 Oeste 37 Sudoeste 0 -- -- 29
2020-07-01 15:00:00 33 19 Sudoeste 35 Sudoeste 0 -- -- 28
2020-07-01 14:00:00 31.4 18 Sudoeste 33 Sudoeste 0 -- -- 28
2020-07-01 13:00:00 30.4 19 Sudoeste 31 Oeste 0 -- -- 27
2020-07-01 12:00:00 29.1 16 Sudoeste 30 Sudoeste 0 -- -- 26
2020-07-01 11:00:00 27.2 18 Sudoeste 32 Sudoeste 0 -- -- 29
2020-07-01 10:00:00 24.9 13 Sudoeste 20 Sudoeste 0 -- -- 44
2020-07-01 09:00:00 24.3 0 Calma 9 Norte 0 -- -- 48
2020-07-01 08:00:00 21.8 3 Noroeste 8 Nordeste 0 -- -- 53
2020-07-01 07:00:00 20.9 5 Oeste 13 Sudoeste 0 -- -- 54
2020-07-01 06:00:00 20.5 5 Sudoeste 11 Sur 0 -- -- 54
2020-07-01 05:00:00 22 3 Sudoeste 13 Sudoeste 0 -- -- 50
2020-07-01 04:00:00 23.1 5 Sudoeste 12 Sudoeste 0 -- -- 45
2020-07-01 03:00:00 24.7 5 Sur 25 Noroeste 0 -- -- 40
2020-07-01 02:00:00 26.7 13 Noroeste 22 Noroeste 0 -- -- 36
2020-07-01 01:00:00 26.8 9 Noroeste 16 Noroeste 0 -- -- 35
2020-07-01 00:00:00 27.6 6 Norte 20 Noroeste 0 -- -- 34
2020-06-30 23:00:00 28.5 8 Noroeste 20 Oeste 0 -- -- 33
2020-06-30 22:00:00 30.1 12 Oeste 29 Oeste 0 -- -- 31
2020-06-30 21:00:00 32.7 13 Oeste 33 Oeste 0 -- -- 27
2020-06-30 20:00:00 34.6 15 Oeste 32 Oeste 0 -- -- 23
2020-06-30 19:00:00 35.3 19 Oeste 37 Oeste 0 -- -- 22
2020-06-30 18:00:00 35.3 16 Oeste 40 Sur 0 -- -- 21
2020-06-30 17:00:00 35.3 21 Sudoeste 39 Sur 0 -- -- 20
2020-06-30 16:00:00 35.3 16 Sudoeste 33 Sudoeste 0 -- -- 21
2020-06-30 15:00:00 34.5 10 Sudoeste 28 Oeste 0 -- -- 24
2020-06-30 14:00:00 32.6 10 Sudeste 23 Sudoeste 0 -- -- 30
2020-06-30 13:00:00 31.4 9 Sudeste 18 Sudeste 0 -- -- 33
2020-06-30 12:00:00 29 10 Sudeste 20 Este 0 -- -- 40
2020-06-30 11:00:00 27.6 10 Este 19 Este 0 -- -- 44
2020-06-30 10:00:00 25.9 9 Nordeste 18 Nordeste 0 -- -- 48
2020-06-30 09:00:00 23.3 6 Nordeste 12 Nordeste 0 -- -- 55
2020-06-30 08:00:00 22 6 Nordeste 13 Nordeste 0 -- -- 57
2020-06-30 07:00:00 21.6 7 Nordeste 16 Nordeste 0 -- -- 57
2020-06-30 06:00:00 20.9 8 Nordeste 27 Norte 0 -- -- 59
2020-06-30 05:00:00 21.7 11 Nordeste 21 Nordeste 0 -- -- 53
2020-06-30 04:00:00 23.4 11 Este 26 Este 0 -- -- 51
2020-06-30 03:00:00 24.3 9 Este 21 Nordeste 0 -- -- 40
2020-06-30 02:00:00 25.3 11 Nordeste 19 Nordeste 0 -- -- 39
2020-06-30 01:00:00 26.2 5 Norte 17 Norte 0 -- -- 37
2020-06-30 00:00:00 27 10 Norte 20 Norte 0 -- -- 36
2020-06-29 23:00:00 29 14 Norte 26 Norte 0 -- -- 32
2020-06-29 22:00:00 29.8 9 Oeste 19 Oeste 0 -- -- 27
2020-06-29 21:00:00 31.8 11 Oeste 29 Sudoeste 0 -- -- 25
2020-06-29 20:00:00 34.2 12 Oeste 26 Sudoeste 0 -- -- 21
2020-06-29 19:00:00 35.1 13 Sudoeste 23 Sudoeste 0 -- -- 20
2020-06-29 18:00:00 35.1 15 Sudoeste 28 Sur 0 -- -- 18
2020-06-29 17:00:00 35.1 14 Sudoeste 27 Sudoeste 0 -- -- 22
2020-06-29 16:00:00 34.4 12 Sudoeste 33 Oeste 0 -- -- 23
2020-06-29 15:00:00 33.4 9 Sudoeste 31 Oeste 0 -- -- 25
2020-06-29 14:00:00 31.9 9 Sur 23 Oeste 0 -- -- 30
2020-06-29 13:00:00 30.1 9 Oeste 23 Sudoeste 0 -- -- 32
2020-06-29 12:00:00 28.8 8 Oeste 21 Oeste 0 -- -- 38
2020-06-29 11:00:00 27.6 8 Sudeste 15 Sudeste 0 -- -- 40
2020-06-29 10:00:00 26.1 4 Este 14 Nordeste 0 -- -- 44
2020-06-29 09:00:00 23.5 4 Nordeste 8 Este 0 -- -- 53
2020-06-29 08:00:00 20.9 3 Nordeste 12 Nordeste 0 -- -- 61
2020-06-29 07:00:00 19.7 7 Nordeste 14 Nordeste 0 -- -- 64
2020-06-29 06:00:00 21 8 Nordeste 15 Nordeste 0 -- -- 60
2020-06-29 05:00:00 20.9 4 Este 10 Norte 0 -- -- 58
2020-06-29 04:00:00 22 4 Norte 16 Norte 0 -- -- 56
2020-06-29 03:00:00 22.7 8 Norte 13 Norte 0 -- -- 54
2020-06-29 02:00:00 23.8 7 Norte 22 Norte 0 -- -- 47
2020-06-29 01:00:00 24.7 12 Norte 24 Norte 0 -- -- 42
2020-06-29 00:00:00 25.7 12 Norte 23 Norte 0 -- -- 38
2020-06-28 23:00:00 26.2 11 Norte 20 Nordeste 0 -- -- 39
2020-06-28 22:00:00 28.5 5 Nordeste 12 Nordeste 0 -- -- 35
2020-06-28 21:00:00 29.6 6 Sudoeste 16 Oeste 0 -- -- 33
2020-06-28 20:00:00 31.4 9 Sudoeste 23 Sudoeste 0 -- -- 29
2020-06-28 19:00:00 32.8 9 Sudoeste 27 Sudoeste 0 -- -- 27
2020-06-28 18:00:00 33.1 10 Sudoeste 26 Sudoeste 0 -- -- 27
2020-06-28 17:00:00 32.9 13 Oeste 28 Sudoeste 0 -- -- 28
2020-06-28 16:00:00 32.5 8 Sudoeste 27 Sudoeste 0 -- -- 28
2020-06-28 15:00:00 30.9 9 Sudoeste 29 Sudoeste 0 -- -- 31
2020-06-28 14:00:00 29.8 10 Sudoeste 24 Oeste 0 -- -- 35
2020-06-28 13:00:00 28.1 10 Sudoeste 23 Sudoeste 0 -- -- 39
2020-06-28 12:00:00 26.5 12 Sudoeste 21 Sudoeste 0 -- -- 43
2020-06-28 11:00:00 25 8 Sudoeste 16 Sudoeste 0 -- -- 47
2020-06-28 10:00:00 23.5 4 Sudoeste 12 Sur 0 -- -- 50
2020-06-28 09:00:00 21.6 0 Calma 5 Sur 0 -- -- 57
2020-06-28 08:00:00 18.6 3 Norte 5 Norte 0 -- -- 67
2020-06-28 07:00:00 17.2 2 Nordeste 4 Este 0 -- -- 69
2020-06-28 06:00:00 18.2 0 Calma 7 Nordeste 0 -- -- 64
2020-06-28 05:00:00 19.3 2 Norte 8 Nordeste 0 -- -- 61
2020-06-28 04:00:00 20.4 5 Nordeste 12 Norte 0 -- -- 58
2020-06-28 03:00:00 20.5 0 Calma 11 Norte 0 -- -- 55
2020-06-28 02:00:00 21.7 6 Norte 15 Norte 0 -- -- 52
2020-06-28 01:00:00 22.2 8 Norte 16 Norte 0 -- -- 51
2020-06-28 00:00:00 22.9 8 Norte 17 Nordeste 0 -- -- 49
2020-06-27 23:00:00 23.9 8 Norte 17 Norte 0 -- -- 46
2020-06-27 22:00:00 25.5 9 Norte 18 Norte 0 -- -- 41
2020-06-27 21:00:00 27.6 11 Norte 26 Norte 0 -- -- 36
2020-06-27 20:00:00 28.9 14 Norte 25 Norte 0 -- -- 33
2020-06-27 19:00:00 28.6 11 Norte 28 Nordeste 0 -- -- 35
2020-06-27 18:00:00 29.2 14 Nordeste 26 Nordeste 0 -- -- 34
2020-06-27 17:00:00 30.5 10 Noroeste 28 Oeste 0 -- -- 31
2020-06-27 16:00:00 31.1 12 Sudoeste 32 Sudoeste 0 -- -- 31
2020-06-27 15:00:00 29.7 13 Sudoeste 33 Sudoeste 0 -- -- 32
2020-06-27 14:00:00 28.6 13 Sudoeste 26 Sudoeste 0 -- -- 33
2020-06-27 13:00:00 26.9 9 Sudoeste 21 Sudoeste 0 -- -- 38
2020-06-27 12:00:00 24.8 6 Oeste 17 Sudoeste 0 -- -- 41
2020-06-27 11:00:00 23.1 6 Sur 14 Sudeste 0 -- -- 43
2020-06-27 10:00:00 22.1 5 Este 13 Este 0 -- -- 46
2020-06-27 09:00:00 20.3 6 Nordeste 22 Nordeste 0 -- -- 52
2020-06-27 08:00:00 18.2 6 Norte 13 Norte 0 -- -- 66
2020-06-27 07:00:00 17.9 6 Norte 21 Norte 0 -- -- 63
2020-06-27 06:00:00 18 11 Norte 23 Norte 0 -- -- 62
2020-06-27 05:00:00 18.5 8 Norte 18 Nordeste 0 -- -- 60
2020-06-27 04:00:00 18.3 3 Oeste 11 Norte 0 -- -- 57
2020-06-27 03:00:00 18.2 0 Calma 6 Norte 0 -- -- 50
2020-06-27 02:00:00 20.5 6 Norte 13 Noroeste 0 -- -- 44
2020-06-27 01:00:00 21.2 5 Norte 16 Norte 0 -- -- 42
2020-06-27 00:00:00 22.2 3 Norte 21 Oeste 0 -- -- 37
2020-06-26 23:00:00 23.2 9 Norte 20 Noroeste 0 -- -- 33
2020-06-26 22:00:00 24.4 8 Norte 19 Oeste 0 -- -- 29
2020-06-26 21:00:00 26.1 11 Oeste 27 Sudoeste 0 -- -- 22
2020-06-26 20:00:00 26.3 14 Oeste 31 Sudoeste 0 -- -- 23
2020-06-26 19:00:00 27.6 13 Oeste 33 Sudoeste 0 -- -- 21
2020-06-26 18:00:00 28.7 18 Sudoeste 34 Oeste 0 -- -- 21
2020-06-26 17:00:00 29.4 15 Oeste 38 Oeste 0 -- -- 19
2020-06-26 16:00:00 28.7 20 Sudoeste 43 Sudoeste 0 -- -- 21
2020-06-26 15:00:00 28.3 21 Sudoeste 38 Sudoeste 0 -- -- 28
2020-06-26 14:00:00 27.1 15 Sudoeste 38 Sudoeste 0 -- -- 34
2020-06-26 13:00:00 27.2 20 Sudoeste 33 Sudoeste 0 -- -- 31
2020-06-26 12:00:00 26 11 Oeste 26 Oeste 0 -- -- 38
2020-06-26 11:00:00 23.8 5 Sudoeste 17 Sudeste 0 -- -- 45
2020-06-26 10:00:00 23.4 8 Sudeste 16 Este 0 -- -- 47
2020-06-26 09:00:00 21.4 10 Este 15 Nordeste 0 -- -- 52
2020-06-26 08:00:00 18.9 9 Nordeste 14 Nordeste 0 -- -- 66
2020-06-26 07:00:00 18.5 8 Nordeste 13 Nordeste 0 -- -- 68
2020-06-26 06:00:00 18.9 7 Nordeste 15 Nordeste 0 -- -- 64
2020-06-26 05:00:00 19.8 5 Nordeste 13 Nordeste 0 -- -- 60
2020-06-26 04:00:00 21 7 Nordeste 14 Nordeste 0 -- -- 58
2020-06-26 03:00:00 21.3 7 Nordeste 17 Nordeste 0 -- -- 55
2020-06-26 02:00:00 22.5 9 Nordeste 22 Este 0 -- -- 52
2020-06-26 01:00:00 23.3 11 Este 24 Este 0 -- -- 49
2020-06-26 00:00:00 26.1 4 Norte 21 Noroeste 0 -- -- 36
2020-06-25 23:00:00 26.1 8 Noroeste 15 Oeste 0 -- -- 36
2020-06-25 22:00:00 27.2 9 Oeste 19 Oeste 0 -- -- 35
2020-06-25 21:00:00 29.3 15 Oeste 28 Oeste 0 -- -- 31
2020-06-25 20:00:00 30.7 16 Oeste 32 Oeste 0 -- -- 30
2020-06-25 19:00:00 31.9 18 Oeste 35 Oeste 0 -- -- 28
2020-06-25 18:00:00 32.2 21 Sudoeste 42 Oeste 0 -- -- 29
2020-06-25 17:00:00 32.7 18 Sudoeste 41 Sudoeste 0 -- -- 27
2020-06-25 16:00:00 32 18 Sudoeste 30 Sudoeste 0 -- -- 30
2020-06-25 15:00:00 31.6 13 Sur 25 Sudoeste 0 -- -- 31
2020-06-25 14:00:00 30.5 8 Sur 19 Sudeste 0 -- -- 33
2020-06-25 13:00:00 28.7 6 Este 22 Este 0 -- -- 36
2020-06-25 12:00:00 26.9 9 Este 18 Sudeste 0 -- -- 40
2020-06-25 11:00:00 25 8 Este 19 Este 0 -- -- 44
2020-06-25 10:00:00 23.8 12 Este 23 Este 0 -- -- 47
2020-06-25 09:00:00 22.9 13 Este 24 Este 0 -- -- 49
2020-06-25 08:00:00 21.5 10 Este 19 Este 0 -- -- 54
2020-06-25 07:00:00 20.8 8 Este 18 Nordeste 0 -- -- 53
2020-06-25 06:00:00 21.5 9 Nordeste 20 Este 0 -- -- 51
2020-06-25 05:00:00 21.9 9 Nordeste 21 Nordeste 0 -- -- 50
2020-06-25 04:00:00 21.1 6 Nordeste 15 Nordeste 0 -- -- 52
2020-06-25 03:00:00 21.8 10 Nordeste 16 Nordeste 0 -- -- 51
2020-06-25 02:00:00 21.8 6 Nordeste 15 Nordeste 0 -- -- 47
2020-06-25 01:00:00 22.5 7 Nordeste 14 Nordeste 0 -- -- 45
2020-06-25 00:00:00 23.6 8 Nordeste 22 Nordeste 0 -- -- 42
2020-06-24 23:00:00 24.3 10 Nordeste 17 Nordeste 0 -- -- 42
2020-06-24 22:00:00 26.1 10 Nordeste 16 Nordeste 0 -- -- 39
2020-06-24 21:00:00 28.4 4 Nordeste 9 Este 0 -- -- 33
2020-06-24 20:00:00 30 6 Este 20 Este 0 -- -- 30
2020-06-24 19:00:00 30.7 8 Este 23 Nordeste 0 -- -- 30
2020-06-24 18:00:00 30.5 9 Este 28 Este 0 -- -- 30
2020-06-24 17:00:00 30.1 11 Este 29 Nordeste 0 -- -- 31
2020-06-24 16:00:00 28.7 16 Este 39 Sudeste 0 -- -- 37
2020-06-24 15:00:00 27.6 14 Este 32 Este 0 -- -- 40
2020-06-24 14:00:00 26.6 9 Este 26 Sudoeste 0 -- -- 42
2020-06-24 13:00:00 25.1 12 Sur 36 Este 0 -- -- 45
2020-06-24 12:00:00 24.1 9 Este 16 Este 0 -- -- 49
2020-06-24 11:00:00 23.9 7 Sudeste 16 Sudeste 0 -- -- 49
2020-06-24 10:00:00 24.4 8 Sudeste 25 Nordeste 0.2 -- -- 55
2020-06-24 09:00:00 21.8 21 Nordeste 33 Nordeste 0 -- -- 57
2020-06-24 08:00:00 22.4 5 Nordeste 9 Nordeste 0 -- -- 51
2020-06-24 07:00:00 20.9 5 Nordeste 14 Nordeste 0 -- -- 54
2020-06-24 06:00:00 22.7 8 Nordeste 14 Nordeste 0 -- -- 46
2020-06-24 05:00:00 23.2 5 Nordeste 19 Nordeste 0 -- -- 45
2020-06-24 04:00:00 23.7 12 Nordeste 27 Nordeste 0 -- -- 45
2020-06-24 03:00:00 24 14 Nordeste 24 Nordeste 0 -- -- 43
2020-06-24 02:00:00 25.6 10 Nordeste 21 Este 0 -- -- 36
2020-06-24 01:00:00 26.1 6 Este 20 Sudeste 0 -- -- 33
2020-06-24 00:00:00 26.7 9 Nordeste 22 Norte 0 -- -- 32
2020-06-23 23:00:00 27.5 11 Norte 28 Norte 0 -- -- 31
2020-06-23 22:00:00 29.2 0 Calma 9 Sudoeste 0 -- -- 27
2020-06-23 21:00:00 32.7 8 Sudoeste 19 Sudoeste 0 -- -- 23
2020-06-23 20:00:00 34.8 6 Oeste 21 Sudoeste 0 -- -- 20
2020-06-23 19:00:00 35.1 8 Sudoeste 22 Sudoeste 0 -- -- 19
2020-06-23 18:00:00 35.6 12 Sudoeste 25 Oeste 0 -- -- 19
2020-06-23 17:00:00 35.3 7 Oeste 20 Sur 0 -- -- 21
2020-06-23 16:00:00 34.1 10 Sur 22 Oeste 0 -- -- 24
2020-06-23 15:00:00 32.4 8 Sur 22 Sur 0 -- -- 29
2020-06-23 14:00:00 31.1 6 Sudeste 14 Sudeste 0 -- -- 32
2020-06-23 13:00:00 29.5 8 Sudeste 19 Sudeste 0 -- -- 36
2020-06-23 12:00:00 27.6 7 Este 16 Este 0 -- -- 39
2020-06-23 11:00:00 25.8 8 Sudeste 17 Este 0 -- -- 43
2020-06-23 10:00:00 24.5 9 Este 19 Nordeste 0 -- -- 46
2020-06-23 09:00:00 22.3 5 Nordeste 14 Nordeste 0 -- -- 53
2020-06-23 08:00:00 20.2 6 Nordeste 12 Nordeste 0 -- -- 56
2020-06-23 07:00:00 19.7 8 Nordeste 14 Nordeste 0 -- -- 58
2020-06-23 06:00:00 20.9 7 Nordeste 22 Este 0 -- -- 53
2020-06-23 05:00:00 22.1 10 Nordeste 19 Este 0 -- -- 47
2020-06-23 04:00:00 22.2 9 Nordeste 17 Nordeste 0 -- -- 47
2020-06-23 03:00:00 22.9 9 Nordeste 17 Nordeste 0 -- -- 45
2020-06-23 02:00:00 23.7 10 Nordeste 18 Nordeste 0 -- -- 41
2020-06-23 01:00:00 23.7 8 Nordeste 18 Nordeste 0 -- -- 38
2020-06-23 00:00:00 24.6 10 Nordeste 16 Nordeste 0 -- -- 37
2020-06-22 23:00:00 25.8 7 Nordeste 13 Nordeste 0 -- -- 36
2020-06-22 22:00:00 28 4 Sur 5 Sudeste 0 -- -- 28
2020-06-22 21:00:00 32 4 Sudeste 12 Nordeste 0 -- -- 23
2020-06-22 20:00:00 33.5 5 Nordeste 13 Nordeste 0 -- -- 22
2020-06-22 19:00:00 33.4 6 Sudeste 15 Norte 0 -- -- 21
2020-06-22 18:00:00 34.4 6 Oeste 19 Oeste 0 -- -- 21
2020-06-22 17:00:00 33.2 4 Este 16 Este 0 -- -- 22
2020-06-22 16:00:00 32.4 7 Sur 20 Sudeste 0 -- -- 22
2020-06-22 15:00:00 31.7 8 Sur 23 Sudeste 0 -- -- 24
2020-06-22 14:00:00 30.1 6 Este 26 Sudeste 0 -- -- 28
2020-06-22 13:00:00 29.1 9 Sudeste 24 Sudeste 0 -- -- 31
2020-06-22 12:00:00 27.4 11 Este 23 Sudeste 0 -- -- 35
2020-06-22 11:00:00 25.7 12 Este 25 Nordeste 0 -- -- 39
2020-06-22 10:00:00 23.8 13 Nordeste 26 Nordeste 0 -- -- 43
2020-06-22 09:00:00 21.1 10 Nordeste 21 Nordeste 0 -- -- 50
2020-06-22 08:00:00 18.9 11 Nordeste 22 Nordeste 0 -- -- 56
2020-06-22 07:00:00 17.4 13 Nordeste 21 Norte 0 -- -- 58
2020-06-22 06:00:00 17.5 11 Nordeste 25 Nordeste 0 -- -- 59
2020-06-22 05:00:00 19.3 12 Nordeste 26 Nordeste 0 -- -- 56
2020-06-22 04:00:00 20.5 10 Nordeste 24 Este 0 -- -- 51
2020-06-22 03:00:00 21.3 13 Nordeste 28 Este 0 -- -- 49
2020-06-22 02:00:00 22.6 14 Nordeste 27 Nordeste 0 -- -- 39
2020-06-22 01:00:00 23.9 9 Este 23 Nordeste 0 -- -- 30
2020-06-22 00:00:00 24.9 14 Norte 26 Norte 0 -- -- 28
2020-06-21 23:00:00 25.2 16 Nordeste 22 Norte 0 -- -- 25
2020-06-21 22:00:00 26.9 11 Norte 20 Norte 0 -- -- 23
2020-06-21 21:00:00 29.1 11 Norte 26 Norte 0 -- -- 24
2020-06-21 20:00:00 30.4 15 Norte 29 Nordeste 0 -- -- 23
2020-06-21 19:00:00 31.1 13 Norte 27 Norte 0 -- -- 24
2020-06-21 18:00:00 31.9 11 Nordeste 25 Nordeste 0 -- -- 26
2020-06-21 17:00:00 32.2 8 Sudeste 22 Sudoeste 0 -- -- 24
2020-06-21 16:00:00 31.7 9 Sur 29 Sudoeste 0 -- -- 25
2020-06-21 15:00:00 31.2 12 Sudoeste 26 Sudoeste 0 -- -- 26
2020-06-21 14:00:00 29.7 13 Sudoeste 28 Sudoeste 0 -- -- 28
2020-06-21 13:00:00 28.3 12 Sudoeste 22 Sudoeste 0 -- -- 31
2020-06-21 12:00:00 26.8 10 Sur 18 Sudoeste 0 -- -- 32
2020-06-21 11:00:00 25.3 7 Sur 14 Sudoeste 0 -- -- 35
2020-06-21 10:00:00 23.2 3 Norte 9 Este 0 -- -- 39
2020-06-21 09:00:00 20.6 4 Norte 6 Norte 0 -- -- 44
2020-06-21 08:00:00 17.8 0 Calma 4 Este 0 -- -- 53
2020-06-21 07:00:00 17.3 4 Sudoeste 8 Sur 0 -- -- 48
2020-06-21 06:00:00 18.7 4 Nordeste 12 Nordeste 0 -- -- 46
2020-06-21 05:00:00 18.5 3 Nordeste 9 Norte 0 -- -- 45
2020-06-21 04:00:00 19.6 2 Norte 17 Norte 0 -- -- 41
2020-06-21 03:00:00 21.8 10 Norte 24 Norte 0 -- -- 36
2020-06-21 02:00:00 22.9 14 Norte 32 Norte 0 -- -- 34
2020-06-21 01:00:00 23.7 18 Norte 31 Nordeste 0 -- -- 32
2020-06-21 00:00:00 23.8 15 Nordeste 23 Norte 0 -- -- 34
2020-06-20 23:00:00 25 8 Norte 15 Norte 0 -- -- 32
2020-06-20 22:00:00 25.4 2 Noroeste 19 Oeste 0 -- -- 35
2020-06-20 21:00:00 28.1 12 Oeste 21 Oeste 0 -- -- 30
2020-06-20 20:00:00 29.1 8 Oeste 25 Sudoeste 0 -- -- 27
2020-06-20 19:00:00 29.6 13 Sudoeste 26 Sudoeste 0 -- -- 26
2020-06-20 18:00:00 31.2 11 Sudoeste 30 Sudoeste 0 -- -- 23
2020-06-20 17:00:00 30.9 16 Sudoeste 33 Sudoeste 0 -- -- 23
2020-06-20 16:00:00 30 14 Sur 30 Sudoeste 0 -- -- 26
2020-06-20 15:00:00 29.4 9 Sudoeste 29 Oeste 0 -- -- 26
2020-06-20 14:00:00 28.1 11 Sudoeste 25 Sudoeste 0 -- -- 28
2020-06-20 13:00:00 27 10 Sudoeste 26 Sudoeste 0 -- -- 30
2020-06-20 12:00:00 25.5 6 Sudoeste 17 Sudoeste 0 -- -- 33
2020-06-20 11:00:00 24.3 8 Sur 13 Sur 0 -- -- 33
2020-06-20 10:00:00 22.6 4 Este 12 Nordeste 0 -- -- 36
2020-06-20 09:00:00 19.4 6 Nordeste 12 Nordeste 0 -- -- 46
2020-06-20 08:00:00 17.2 6 Nordeste 15 Nordeste 0 -- -- 50
2020-06-20 07:00:00 16.9 6 Nordeste 19 Nordeste 0 -- -- 49
2020-06-20 06:00:00 16.2 4 Nordeste 8 Este 0 -- -- 48
2020-06-20 05:00:00 16.6 3 Sudeste 6 Sudeste 0 -- -- 46
2020-06-20 04:00:00 18.6 4 Sudeste 11 Noroeste 0 -- -- 41
2020-06-20 03:00:00 19.6 8 Norte 14 Norte 0 -- -- 39
2020-06-20 02:00:00 20.4 6 Norte 22 Norte 0 -- -- 35
2020-06-20 01:00:00 21.6 14 Norte 22 Norte 0 -- -- 32
2020-06-20 00:00:00 21.3 6 Norte 13 Nordeste 0 -- -- 31
2020-06-19 23:00:00 21.6 0 Calma 13 Sudoeste 0 -- -- 40
2020-06-19 22:00:00 24.1 9 Sudoeste 15 Sudoeste 0 -- -- 38
2020-06-19 21:00:00 26 4 Norte 11 Norte 0 -- -- 32
2020-06-19 20:00:00 26.7 6 Sudoeste 29 Sudoeste 0 -- -- 32
2020-06-19 19:00:00 29.2 12 Oeste 28 Sur 0 -- -- 28
2020-06-19 18:00:00 29 12 Sur 31 Sudoeste 0 -- -- 27
2020-06-19 17:00:00 28.4 13 Sudoeste 34 Oeste 0 -- -- 27
2020-06-19 16:00:00 27.9 12 Sudoeste 32 Sudoeste 0 -- -- 30
2020-06-19 15:00:00 27.2 11 Sudoeste 26 Oeste 0 -- -- 33
2020-06-19 14:00:00 25.7 9 Sudoeste 28 Sudoeste 0 -- -- 38
2020-06-19 13:00:00 24.3 8 Sudeste 20 Sur 0 -- -- 42
2020-06-19 12:00:00 22.6 7 Sudeste 16 Sur 0 -- -- 50
2020-06-19 11:00:00 20.7 7 Este 18 Este 0 -- -- 59
2020-06-19 10:00:00 19.4 9 Este 22 Nordeste 0 -- -- 63
2020-06-19 09:00:00 17.9 13 Este 23 Este 0 -- -- 64
2020-06-19 08:00:00 15 6 Nordeste 18 Norte 0 -- -- 58
2020-06-19 07:00:00 14.4 8 Nordeste 18 Nordeste 0 -- -- 55
2020-06-19 06:00:00 14.8 10 Nordeste 17 Nordeste 0 -- -- 62
2020-06-19 05:00:00 15.7 13 Nordeste 21 Nordeste 0 -- -- 60
2020-06-19 04:00:00 16.6 8 Nordeste 17 Nordeste 0 -- -- 62
2020-06-19 03:00:00 17.5 7 Este 16 Sudeste 0 -- -- 57
2020-06-19 02:00:00 18.7 10 Nordeste 21 Norte 0 -- -- 47
2020-06-19 01:00:00 19.1 8 Norte 16 Norte 0 -- -- 46
2020-06-19 00:00:00 20.4 8 Norte 18 Norte 0 -- -- 42
2020-06-18 23:00:00 21.2 11 Norte 19 Norte 0 -- -- 41
2020-06-18 22:00:00 22.1 9 Norte 16 Norte 0 -- -- 39
2020-06-18 21:00:00 23.6 9 Norte 16 Norte 0 -- -- 38
2020-06-18 20:00:00 24.6 7 Noroeste 21 Noroeste 0 -- -- 36
2020-06-18 19:00:00 25.5 9 Oeste 25 Oeste 0 -- -- 33
2020-06-18 18:00:00 25.7 11 Oeste 30 Oeste 0 -- -- 30
2020-06-18 17:00:00 26.5 15 Sudoeste 30 Sudoeste 0 -- -- 31
2020-06-18 16:00:00 26.3 7 Sur 32 Sudoeste 0 -- -- 33
2020-06-18 15:00:00 25 7 Sur 30 Sudoeste 0 -- -- 35
2020-06-18 14:00:00 25 15 Sudoeste 27 Sudoeste 0 -- -- 34
2020-06-18 13:00:00 23.6 11 Sudoeste 23 Sur 0 -- -- 37
2020-06-18 12:00:00 21.8 10 Oeste 19 Sur 0 -- -- 41
2020-06-18 11:00:00 20.5 4 Oeste 10 Sudeste 0 -- -- 45
2020-06-18 10:00:00 19.1 4 Este 10 Este 0 -- -- 46
2020-06-18 09:00:00 16.6 5 Nordeste 13 Nordeste 0 -- -- 55
2020-06-18 08:00:00 14.2 5 Nordeste 11 Nordeste 0 -- -- 60
2020-06-18 07:00:00 12.2 6 Este 10 Este 0 -- -- 67
2020-06-18 06:00:00 13.1 0 Calma 10 Este 0 -- -- 60
2020-06-18 05:00:00 14.2 3 Nordeste 8 Nordeste 0 -- -- 58
2020-06-18 04:00:00 16.2 4 Nordeste 11 Este 0 -- -- 53
2020-06-18 03:00:00 16.5 4 Este 10 Nordeste 0 -- -- 48
2020-06-18 02:00:00 16.2 6 Este 13 Sudeste 0 -- -- 50
2020-06-18 01:00:00 17.2 5 Norte 13 Norte 0 -- -- 44
2020-06-18 00:00:00 17.4 6 Nordeste 13 Norte 0 -- -- 44
2020-06-17 23:00:00 18.6 8 Norte 14 Norte 0 -- -- 42
2020-06-17 22:00:00 20.2 5 Norte 13 Norte 0 -- -- 40
2020-06-17 21:00:00 21.3 9 Norte 20 Oeste 0 -- -- 39
2020-06-17 20:00:00 22.1 7 Oeste 26 Sudoeste 0 -- -- 37
2020-06-17 19:00:00 23.1 7 Oeste 34 Sudoeste 0 -- -- 37
2020-06-17 18:00:00 23.1 11 Oeste 27 Sudoeste 0 -- -- 37
2020-06-17 17:00:00 23.3 6 Norte 21 Norte 0 -- -- 32
2020-06-17 16:00:00 22.8 13 Oeste 22 Oeste 0 -- -- 32
2020-06-17 15:00:00 22.4 11 Sur 24 Sudoeste 0 -- -- 35
2020-06-17 14:00:00 22.5 8 Oeste 24 Sur 0 -- -- 36
2020-06-17 13:00:00 20.9 6 Sudoeste 19 Sudoeste 0 -- -- 41
2020-06-17 12:00:00 19.3 5 Este 18 Sudoeste 0 -- -- 42
2020-06-17 11:00:00 18.2 3 Sudoeste 14 Norte 0 -- -- 45
2020-06-17 10:00:00 16.7 8 Norte 16 Nordeste 0 -- -- 50
2020-06-17 09:00:00 15.4 3 Nordeste 12 Nordeste 0 -- -- 54
2020-06-17 08:00:00 13.3 3 Norte 17 Nordeste 0 -- -- 61
2020-06-17 07:00:00 13 10 Norte 18 Norte 0 -- -- 60
2020-06-17 06:00:00 13 5 Norte 13 Norte 0 -- -- 59
2020-06-17 05:00:00 13.7 4 Norte 18 Norte 0 -- -- 59
2020-06-17 04:00:00 14.6 10 Norte 22 Norte 0 -- -- 54
2020-06-17 03:00:00 14.8 8 Norte 30 Norte 0 -- -- 55
2020-06-17 02:00:00 15.9 18 Norte 36 Norte 0 -- -- 55
2020-06-17 01:00:00 16.9 10 Norte 29 Noroeste 0 -- -- 51
2020-06-17 00:00:00 17.5 15 Norte 32 Noroeste 0 -- -- 48
2020-06-16 23:00:00 18.2 16 Noroeste 36 Noroeste 0 -- -- 45
2020-06-16 22:00:00 19.3 12 Noroeste 31 Noroeste 0 -- -- 47
2020-06-16 21:00:00 21.5 15 Noroeste 36 Noroeste 0 -- -- 39
2020-06-16 20:00:00 22.6 18 Noroeste 37 Noroeste 0 -- -- 38
2020-06-16 19:00:00 22.2 18 Noroeste 47 Noroeste 0 -- -- 38
2020-06-16 18:00:00 22.1 21 Noroeste 36 Noroeste 0 -- -- 37
2020-06-16 17:00:00 23.5 17 Noroeste 31 Noroeste 0 -- -- 34
2020-06-16 16:00:00 22.1 14 Noroeste 30 Noroeste 0 -- -- 37
2020-06-16 15:00:00 23.1 13 Noroeste 32 Noroeste 0 -- -- 35
2020-06-16 14:00:00 22 17 Noroeste 36 Noroeste 0 -- -- 37
2020-06-16 13:00:00 21.1 20 Noroeste 36 Oeste 0 -- -- 41
2020-06-16 12:00:00 19.4 10 Oeste 24 Oeste 0 -- -- 47
2020-06-16 11:00:00 17.4 4 Norte 23 Nordeste 0 -- -- 55
2020-06-16 10:00:00 15.8 13 Norte 25 Nordeste 0 -- -- 61
2020-06-16 09:00:00 15.6 3 Oeste 7 Oeste 0 -- -- 62
2020-06-16 08:00:00 14.9 3 Norte 11 Norte 0 -- -- 66
2020-06-16 07:00:00 14.9 3 Norte 9 Noroeste 0 -- -- 62
2020-06-16 06:00:00 15.1 7 Norte 15 Noroeste 0 -- -- 59
2020-06-16 05:00:00 14.5 0 Calma 8 Nordeste 0 -- -- 65
2020-06-16 04:00:00 15.2 2 Este 14 Norte 0 -- -- 62
2020-06-16 03:00:00 15.7 4 Norte 12 Nordeste 0 -- -- 61
2020-06-16 02:00:00 16 2 Norte 17 Norte 0 -- -- 60
2020-06-16 01:00:00 16.6 10 Norte 24 Norte 0 -- -- 59
2020-06-16 00:00:00 17.3 11 Norte 23 Norte 0 -- -- 56
2020-06-15 23:00:00 19 9 Norte 21 Noroeste 0 -- -- 50
2020-06-15 22:00:00 20.4 8 Noroeste 19 Noroeste 0 -- -- 48
2020-06-15 21:00:00 20.8 10 Noroeste 22 Oeste 0 -- -- 55
2020-06-15 20:00:00 21.4 6 Noroeste 14 Norte 0 -- -- 55
2020-06-15 19:00:00 20.9 8 Norte 26 Noroeste 0 -- -- 55
2020-06-15 18:00:00 21.1 14 Noroeste 32 Sur 0 -- -- 58
2020-06-15 17:00:00 25.8 17 Sur 30 Sudoeste 0 -- -- 37
2020-06-15 16:00:00 25.3 19 Sudoeste 35 Sudoeste 0 -- -- 38
2020-06-15 15:00:00 24.2 13 Sur 30 Sudoeste 0 -- -- 40
2020-06-15 14:00:00 23.1 12 Sudoeste 35 Sudoeste 0 -- -- 41
2020-06-15 13:00:00 21.5 9 Sudoeste 21 Sudoeste 0 -- -- 46
2020-06-15 12:00:00 20.5 9 Sudoeste 26 Sudoeste 0 -- -- 48
2020-06-15 11:00:00 19.3 7 Sudoeste 15 Sudoeste 0 -- -- 52
2020-06-15 10:00:00 18.2 5 Sudeste 12 Sudeste 0 -- -- 55
2020-06-15 09:00:00 15.8 5 Nordeste 10 Nordeste 0 -- -- 66
2020-06-15 08:00:00 13.3 5 Nordeste 8 Nordeste 0 -- -- 74
2020-06-15 07:00:00 13 3 Nordeste 6 Nordeste 0 -- -- 73
2020-06-15 06:00:00 13.7 2 Nordeste 5 Nordeste 0 -- -- 69
2020-06-15 05:00:00 13.7 2 Nordeste 6 Nordeste 0 -- -- 67
2020-06-15 04:00:00 14.7 3 Este 6 Este 0 -- -- 61
2020-06-15 03:00:00 15.9 3 Este 5 Nordeste 0 -- -- 57
2020-06-15 02:00:00 16.5 0 Calma 15 Norte 0 -- -- 53
2020-06-15 01:00:00 17.5 12 Norte 26 Norte 0 -- -- 50
2020-06-15 00:00:00 18 15 Norte 27 Norte 0 -- -- 48
2020-06-14 23:00:00 18.8 9 Norte 29 Norte 0 -- -- 45
2020-06-14 22:00:00 20.1 14 Norte 28 Norte 0 -- -- 42
2020-06-14 21:00:00 22.3 12 Norte 22 Noroeste 0 -- -- 37
2020-06-14 20:00:00 23.4 10 Norte 20 Noroeste 0 -- -- 36
2020-06-14 19:00:00 23.6 8 Noroeste 23 Oeste 0 -- -- 34
2020-06-14 18:00:00 23.7 5 Este 29 Norte 0 -- -- 35
2020-06-14 17:00:00 23.9 5 Norte 18 Norte 0 -- -- 35
2020-06-14 16:00:00 23.4 10 Norte 23 Sudoeste 0 -- -- 35
2020-06-14 15:00:00 22.7 11 Sudoeste 29 Sudoeste 0 -- -- 37
2020-06-14 14:00:00 21.2 12 Sudoeste 26 Oeste 0 -- -- 42
2020-06-14 13:00:00 19.9 9 Noroeste 32 Oeste 0 -- -- 41
2020-06-14 12:00:00 18.7 10 Sudoeste 20 Sur 0 -- -- 46
2020-06-14 11:00:00 17.6 7 Sudoeste 14 Sudoeste 0 -- -- 50
2020-06-14 10:00:00 16.4 5 Sudeste 12 Sur 0 -- -- 56
2020-06-14 09:00:00 14.7 0 Calma 5 Norte 0 -- -- 61
2020-06-14 08:00:00 12.6 3 Norte 11 Nordeste 0 -- -- 70
2020-06-14 07:00:00 11.2 5 Nordeste 9 Nordeste 0 -- -- 72
2020-06-14 06:00:00 10.8 2 Nordeste 7 Norte 0 -- -- 73
2020-06-14 05:00:00 12.5 4 Norte 9 Nordeste 0 -- -- 69
2020-06-14 04:00:00 12.3 5 Nordeste 7 Nordeste 0 -- -- 67
2020-06-14 03:00:00 13.7 2 Noroeste 17 Norte 0 -- -- 63
2020-06-14 02:00:00 14 7 Norte 17 Norte 0 -- -- 63
2020-06-14 01:00:00 15.1 9 Norte 20 Norte 0 -- -- 57
2020-06-14 00:00:00 15.9 8 Noroeste 16 Noroeste 0 -- -- 53
2020-06-13 23:00:00 15.7 2 Noroeste 9 Oeste 0 -- -- 53
2020-06-13 22:00:00 16.8 6 Oeste 19 Oeste 0 -- -- 48
2020-06-13 21:00:00 18.8 11 Oeste 25 Sudoeste 0 -- -- 44
2020-06-13 20:00:00 21 13 Sudoeste 29 Oeste 0 -- -- 40
2020-06-13 19:00:00 20.5 9 Oeste 23 Sudoeste 0 -- -- 43
2020-06-13 18:00:00 20.6 12 Sudoeste 30 Sudoeste 0 -- -- 41
2020-06-13 17:00:00 21.2 14 Sudoeste 26 Sur 0 -- -- 41
2020-06-13 16:00:00 19.9 12 Sudoeste 29 Sudoeste 0 -- -- 43
2020-06-13 15:00:00 19.7 5 Sudoeste 25 Oeste 0 -- -- 39
2020-06-13 14:00:00 20.3 12 Oeste 23 Sudoeste 0 -- -- 37
2020-06-13 13:00:00 18.3 8 Norte 18 Norte 0 -- -- 41
2020-06-13 12:00:00 16.5 6 Sur 19 Nordeste 0 -- -- 49
2020-06-13 11:00:00 14.9 5 Sudoeste 18 Noroeste 0 -- -- 55
2020-06-13 10:00:00 12.9 9 Oeste 17 Oeste 0 -- -- 62
2020-06-13 09:00:00 11.9 8 Norte 21 Noroeste 0 -- -- 66
2020-06-13 08:00:00 10.3 11 Noroeste 24 Noroeste 0 -- -- 73
2020-06-13 07:00:00 8.3 3 Noroeste 12 Sudoeste 0 -- -- 84
2020-06-13 06:00:00 8.5 4 Oeste 9 Sudoeste 0 -- -- 81
2020-06-13 05:00:00 8.9 3 Sudoeste 8 Sudoeste 0 -- -- 82
2020-06-13 04:00:00 9.9 3 Sudoeste 13 Oeste 0 -- -- 74
2020-06-13 03:00:00 10.5 4 Oeste 20 Oeste 0 -- -- 73
2020-06-13 02:00:00 10.8 11 Oeste 22 Noroeste 0 -- -- 74
2020-06-13 01:00:00 10.2 3 Sudoeste 13 Oeste 0 -- -- 80
2020-06-13 00:00:00 10.8 9 Oeste 17 Noroeste 0 -- -- 77
2020-06-12 23:00:00 11.3 9 Noroeste 19 Noroeste 0.2 -- -- 74
2020-06-12 22:00:00 12.2 9 Oeste 29 Noroeste 0 -- -- 73
2020-06-12 21:00:00 13.6 14 Noroeste 31 Noroeste 0 -- -- 59
2020-06-12 20:00:00 15.8 11 Oeste 44 Oeste 0 -- -- 56
2020-06-12 19:00:00 17 24 Oeste 45 Oeste 0 -- -- 49
2020-06-12 18:00:00 17.3 22 Oeste 41 Sudoeste 0 -- -- 48
2020-06-12 17:00:00 16.8 23 Oeste 37 Sudoeste 0 -- -- 51
2020-06-12 16:00:00 15.9 14 Oeste 36 Oeste 0 -- -- 54
2020-06-12 15:00:00 15.9 17 Oeste 32 Oeste 0 -- -- 55
2020-06-12 14:00:00 15.9 13 Sudoeste 28 Sudoeste 0 -- -- 51
2020-06-12 13:00:00 14 13 Sudoeste 30 Sudoeste 0 -- -- 55
2020-06-12 12:00:00 13.9 14 Oeste 31 Sudoeste 0 -- -- 57
2020-06-12 11:00:00 13.1 17 Sudoeste 28 Sudoeste 0 -- -- 61
2020-06-12 10:00:00 10.8 14 Sudoeste 22 Sudoeste 0 -- -- 69
2020-06-12 09:00:00 9.3 10 Sudoeste 18 Sudoeste 0 -- -- 74
2020-06-12 08:00:00 7.7 4 Oeste 14 Sudoeste 0 -- -- 77
2020-06-12 07:00:00 6.9 7 Oeste 21 Oeste 0 -- -- 76
2020-06-12 06:00:00 7.5 6 Oeste 15 Oeste 0 -- -- 70
2020-06-12 05:00:00 8.5 11 Oeste 30 Noroeste 0 -- -- 69
2020-06-12 04:00:00 9.7 13 Noroeste 28 Noroeste 0 -- -- 63
2020-06-12 03:00:00 10.6 15 Noroeste 37 Noroeste 0 -- -- 61
2020-06-12 02:00:00 11.1 19 Noroeste 36 Noroeste 0 -- -- 61
2020-06-12 01:00:00 11.7 9 Noroeste 27 Noroeste 0 -- -- 64
2020-06-12 00:00:00 12.8 8 Noroeste 18 Noroeste 0 -- -- 68
2020-06-11 23:00:00 13.8 8 Oeste 27 Oeste 0 -- -- 75
2020-06-11 22:00:00 14.3 13 Oeste 23 Oeste 0.2 -- -- 81
2020-06-11 21:00:00 15 15 Noroeste 55 Oeste 0.4 -- -- 81
2020-06-11 20:00:00 19 30 Oeste 54 Oeste 0 -- -- 52
2020-06-11 19:00:00 20.3 24 Sudoeste 44 Sudoeste 0 -- -- 44
2020-06-11 18:00:00 19.9 17 Oeste 44 Oeste 0 -- -- 47
2020-06-11 17:00:00 19.9 15 Oeste 30 Oeste 0 -- -- 48
2020-06-11 16:00:00 21.3 18 Oeste 42 Noroeste 0 -- -- 41
2020-06-11 15:00:00 21 22 Oeste 40 Noroeste 0 -- -- 42
2020-06-11 14:00:00 20.6 18 Noroeste 34 Noroeste 0 -- -- 46
2020-06-11 13:00:00 20.4 14 Oeste 33 Oeste 0 -- -- 44
2020-06-11 12:00:00 20.4 13 Oeste 28 Noroeste 0 -- -- 48
2020-06-11 11:00:00 19 11 Oeste 28 Oeste 0 -- -- 53
2020-06-11 10:00:00 17.7 8 Oeste 18 Oeste 0 -- -- 55
2020-06-11 09:00:00 15.5 9 Oeste 15 Sudoeste 0 -- -- 64
2020-06-11 08:00:00 12.8 6 Sudoeste 12 Sudoeste 0 -- -- 69
2020-06-11 07:00:00 12.1 3 Sudoeste 8 Oeste 0 -- -- 68
2020-06-11 06:00:00 13.1 4 Oeste 9 Oeste 0 -- -- 68
2020-06-11 05:00:00 14.2 4 Sudoeste 10 Sudoeste 0 -- -- 63
2020-06-11 04:00:00 14.9 4 Sudoeste 13 Oeste 0 -- -- 60
2020-06-11 03:00:00 16.4 7 Oeste 22 Oeste 0 -- -- 51
2020-06-11 02:00:00 17.1 8 Oeste 17 Oeste 0 -- -- 41
2020-06-11 01:00:00 18 6 Oeste 18 Noroeste 0 -- -- 39
2020-06-11 00:00:00 19.3 11 Noroeste 19 Noroeste 0 -- -- 36
2020-06-10 23:00:00 20 8 Noroeste 19 Oeste 0 -- -- 37
2020-06-10 22:00:00 20.5 11 Oeste 21 Oeste 0 -- -- 37
2020-06-10 21:00:00 21.7 10 Oeste 23 Sudoeste 0 -- -- 35
2020-06-10 20:00:00 22.7 11 Oeste 25 Noroeste 0 -- -- 36
2020-06-10 19:00:00 23.2 4 Sudoeste 24 Noroeste 0 -- -- 35
2020-06-10 18:00:00 24.3 7 Noroeste 16 Sudoeste 0 -- -- 31
2020-06-10 17:00:00 23.4 9 Oeste 22 Oeste 0 -- -- 35
2020-06-10 16:00:00 23.5 12 Sur 29 Sudoeste 0 -- -- 35
2020-06-10 15:00:00 22.7 14 Sur 28 Sudoeste 0 -- -- 35
2020-06-10 14:00:00 21.8 10 Sudoeste 26 Sudoeste 0 -- -- 38
2020-06-10 13:00:00 20.1 8 Sur 19 Sudoeste 0 -- -- 39
2020-06-10 12:00:00 17.7 6 Sudoeste 15 Sur 0 -- -- 45
2020-06-10 11:00:00 15.3 4 Norte 13 Nordeste 0 -- -- 49
2020-06-10 10:00:00 14.5 6 Nordeste 18 Este 0 -- -- 53
2020-06-10 09:00:00 13.1 7 Nordeste 15 Este 0 -- -- 57
2020-06-10 08:00:00 10.8 6 Nordeste 13 Nordeste 0 -- -- 72
2020-06-10 07:00:00 9.9 8 Nordeste 18 Nordeste 0 -- -- 72
2020-06-10 06:00:00 10.6 12 Nordeste 20 Este 0 -- -- 64
2020-06-10 05:00:00 10.7 9 Este 19 Nordeste 0 -- -- 64
2020-06-10 04:00:00 11.1 9 Este 18 Este 0 -- -- 60
2020-06-10 03:00:00 11.6 7 Este 14 Este 0 -- -- 56
2020-06-10 02:00:00 12.1 5 Este 13 Este 0 -- -- 55
2020-06-10 01:00:00 12.9 6 Este 12 Este 0 -- -- 54
2020-06-10 00:00:00 14.4 7 Este 19 Nordeste 0 -- -- 49